createdAt,value
2019-01-10T00:00:59.156Z,93413.19
2019-01-10T00:03:26.898Z,93422.89
2019-01-10T00:05:55.306Z,93416.11
2019-01-10T00:08:23.563Z,93421.58
2019-01-10T00:10:51.760Z,93414.86
2019-01-10T00:13:19.829Z,93419.43
2019-01-10T00:15:47.978Z,93419.43
2019-01-10T00:18:16.087Z,93420.25
2019-01-10T00:20:44.193Z,93426.25
2019-01-10T00:23:12.562Z,93422.48
2019-01-10T00:25:40.733Z,93435.83
2019-01-10T00:28:09.209Z,93440.02
2019-01-10T00:30:37.395Z,93438.34
2019-01-10T00:33:05.873Z,93445.44
2019-01-10T00:35:34.368Z,93451.31
2019-01-10T00:38:02.458Z,93452.60
2019-01-10T00:40:30.837Z,93457.94
2019-01-10T00:42:59.428Z,93465.08
2019-01-10T00:45:27.836Z,93470.52
2019-01-10T00:47:55.967Z,93467.67
2019-01-10T00:50:25.059Z,93475.18
2019-01-10T00:52:53.158Z,93468.87
2019-01-10T00:55:21.328Z,93476.83
2019-01-10T00:57:49.026Z,93481.77
2019-01-10T01:00:22.181Z,93478.03
2019-01-10T01:02:50.191Z,93482.27
2019-01-10T01:05:58.639Z,93481.80
2019-01-10T01:08:26.837Z,93479.70
2019-01-10T01:10:55.029Z,93481.77
2019-01-10T01:13:23.517Z,93480.54
2019-01-10T01:15:52.002Z,93490.58
2019-01-10T01:18:20.383Z,93492.67
2019-01-10T01:20:48.528Z,93497.64
2019-01-10T01:23:17.064Z,93501.52
2019-01-10T01:25:44.479Z,93509.00
2019-01-10T01:28:12.702Z,93507.72
2019-01-10T01:30:40.834Z,93511.09
2019-01-10T01:33:09.363Z,93511.54
2019-01-10T01:35:37.735Z,93505.20
2019-01-10T01:38:05.515Z,93516.53
2019-01-10T01:40:33.383Z,93516.53
2019-01-10T01:43:07.351Z,93516.47
2019-01-10T01:45:31.573Z,93520.63
2019-01-10T01:48:00.174Z,93523.13
2019-01-10T01:50:27.190Z,93523.16
2019-01-10T01:52:55.340Z,93529.86
2019-01-10T01:55:23.412Z,93532.79
2019-01-10T01:57:51.567Z,93532.95
2019-01-10T02:01:00.910Z,93534.53
2019-01-10T02:03:29.363Z,93534.53
2019-01-10T02:05:57.865Z,93526.45
2019-01-10T02:08:26.030Z,93532.79
2019-01-10T02:10:53.848Z,93529.09
2019-01-10T02:13:22.052Z,93541.58
2019-01-10T02:15:50.188Z,93532.83
2019-01-10T02:18:18.245Z,93529.44
2019-01-10T02:20:46.322Z,93526.55
2019-01-10T02:23:14.877Z,93532.38
2019-01-10T02:25:42.992Z,93541.29
2019-01-10T02:28:11.359Z,93535.81
2019-01-10T02:30:42.139Z,93532.86
2019-01-10T02:33:09.800Z,93540.80
2019-01-10T02:35:37.901Z,93533.39
2019-01-10T02:38:06.030Z,93533.21
2019-01-10T02:40:33.476Z,93526.12
2019-01-10T02:43:01.875Z,93524.48
2019-01-10T02:45:29.657Z,93524.42
2019-01-10T02:47:57.827Z,93521.55
2019-01-10T02:50:26.324Z,93519.46
2019-01-10T02:52:54.697Z,93524.99
2019-01-10T02:55:23.182Z,93535.81
2019-01-10T02:57:50.901Z,93538.72
2019-01-10T03:00:20.794Z,93539.97
2019-01-10T03:02:49.174Z,93529.44
2019-01-10T03:05:17.551Z,93534.88
2019-01-10T03:07:45.718Z,93529.44
2019-01-10T03:10:54.556Z,93538.65
2019-01-10T03:13:23.033Z,93534.11
2019-01-10T03:15:51.198Z,93529.09
2019-01-10T03:18:19.843Z,93527.50
2019-01-10T03:20:48.074Z,93529.50
2019-01-10T03:23:16.250Z,93527.38
2019-01-10T03:25:43.667Z,93531.12
2019-01-10T03:28:11.505Z,93533.30
2019-01-10T03:30:39.224Z,93524.45
2019-01-10T03:33:07.373Z,93523.61
2019-01-10T03:35:35.725Z,93528.25
2019-01-10T03:38:03.495Z,93523.37
2019-01-10T03:40:31.974Z,93531.27
2019-01-10T03:43:00.214Z,93530.83
2019-01-10T03:45:27.911Z,93528.67
2019-01-10T03:47:55.747Z,93533.69
2019-01-10T03:50:23.968Z,93532.91
2019-01-10T03:52:52.453Z,93538.92
2019-01-10T03:55:20.938Z,93534.20
2019-01-10T03:57:48.817Z,93531.36
2019-01-10T04:00:19.281Z,93530.92
2019-01-10T04:03:27.484Z,93532.05
2019-01-10T04:05:55.848Z,93538.75
2019-01-10T04:08:24.004Z,93529.50
2019-01-10T04:10:51.788Z,93537.48
2019-01-10T04:13:19.930Z,93539.52
2019-01-10T04:15:48.553Z,93539.64
2019-01-10T04:18:17.035Z,93539.23
2019-01-10T04:20:44.752Z,93537.07
2019-01-10T04:23:13.192Z,93540.39
2019-01-10T04:25:42.944Z,93530.77
2019-01-10T04:28:11.067Z,93537.91
2019-01-10T04:30:39.154Z,93537.87
2019-01-10T04:33:07.283Z,93542.58
2019-01-10T04:35:35.115Z,93537.52
2019-01-10T04:38:03.220Z,93536.30
2019-01-10T04:40:31.629Z,93543.50
2019-01-10T04:42:59.689Z,93538.87
2019-01-10T04:45:28.343Z,93541.64
2019-01-10T04:47:56.925Z,93544.19
2019-01-10T04:50:25.043Z,93547.92
2019-01-10T04:52:53.427Z,93544.51
2019-01-10T04:55:21.531Z,93537.46
2019-01-10T04:57:50.070Z,93550.08
2019-01-10T05:00:37.529Z,93542.12
2019-01-10T05:03:05.958Z,93547.95
2019-01-10T05:05:33.730Z,93553.39
2019-01-10T05:08:01.914Z,93556.36
2019-01-10T05:10:29.699Z,93554.75
2019-01-10T05:12:57.448Z,93553.48
2019-01-10T05:15:25.538Z,93551.48
2019-01-10T05:17:53.203Z,93558.99
2019-01-10T05:20:21.682Z,93566.92
2019-01-10T05:22:49.395Z,93568.91
2019-01-10T05:25:17.746Z,93571.08
2019-01-10T05:27:45.915Z,93571.04
2019-01-10T05:30:55.724Z,93575.16
2019-01-10T05:33:24.249Z,93572.27
2019-01-10T05:35:52.416Z,93574.42
2019-01-10T05:38:20.514Z,93578.19
2019-01-10T05:40:48.873Z,93577.35
2019-01-10T05:43:17.368Z,93573.13
2019-01-10T05:45:45.138Z,93580.70
2019-01-10T05:48:13.570Z,93586.98
2019-01-10T05:50:43.689Z,93587.40
2019-01-10T05:53:12.433Z,93601.22
2019-01-10T05:55:40.524Z,93598.67
2019-01-10T05:58:09.059Z,93599.92
2019-01-10T06:00:37.170Z,93604.66
2019-01-10T06:03:05.369Z,93610.52
2019-01-10T06:05:33.539Z,93605.08
2019-01-10T06:08:02.017Z,93608.85
2019-01-10T06:10:29.470Z,93619.25
2019-01-10T06:12:57.864Z,93611.75
2019-01-10T06:15:26.154Z,93617.99
2019-01-10T06:17:54.293Z,93618.38
2019-01-10T06:20:22.931Z,93627.59
2019-01-10T06:22:50.269Z,93623.82
2019-01-10T06:25:18.376Z,93628.05
2019-01-10T06:27:46.754Z,93633.03
2019-01-10T06:30:17.206Z,93634.70
2019-01-10T06:32:45.884Z,93646.42
2019-01-10T06:35:14.533Z,93638.89
2019-01-10T06:37:42.746Z,93642.66
2019-01-10T06:40:12.244Z,93643.08
2019-01-10T06:42:40.340Z,93649.39
2019-01-10T06:45:09.834Z,93639.31
2019-01-10T06:47:38.345Z,93645.20
2019-01-10T06:50:08.294Z,93655.25
2019-01-10T06:52:36.466Z,93661.22
2019-01-10T06:55:05.322Z,93658.19
2019-01-10T06:57:33.394Z,93658.64
2019-01-10T07:00:01.177Z,93662.79
2019-01-10T07:02:29.819Z,93658.22
2019-01-10T07:04:56.905Z,93664.95
2019-01-10T07:07:27.144Z,93669.11
2019-01-10T07:09:54.192Z,93667.39
2019-01-10T07:12:22.789Z,93665.38
2019-01-10T07:14:53.748Z,93669.94
2019-01-10T07:17:21.163Z,93671.62
2019-01-10T07:19:49.781Z,93674.58
2019-01-10T07:22:18.382Z,93675.84
2019-01-10T07:25:05.320Z,93673.30
2019-01-10T07:27:33.156Z,93675.39
2019-01-10T07:30:01.671Z,93677.91
2019-01-10T07:32:29.836Z,93682.55
2019-01-10T07:35:17.049Z,93682.16
2019-01-10T07:38:35.105Z,93682.96
2019-01-10T07:41:03.735Z,93689.73
2019-01-10T07:43:32.334Z,93696.81
2019-01-10T07:46:45.182Z,93699.41
2019-01-10T07:49:12.924Z,93699.47
2019-01-10T07:52:00.536Z,93701.57
2019-01-10T07:54:28.460Z,93709.11
2019-01-10T07:56:55.561Z,93710.81
2019-01-10T07:59:23.324Z,93716.68
2019-01-10T08:01:51.435Z,93721.84
2019-01-10T08:04:19.915Z,93725.17
2019-01-10T08:06:48.496Z,93723.53
2019-01-10T08:09:16.318Z,93723.14
2019-01-10T08:11:44.075Z,93729.88
2019-01-10T08:14:12.208Z,93732.91
2019-01-10T08:16:40.219Z,93740.53
2019-01-10T08:19:08.359Z,93742.20
2019-01-10T08:21:36.440Z,93738.81
2019-01-10T08:24:04.839Z,93743.84
2019-01-10T08:26:32.574Z,93743.81
2019-01-10T08:29:00.385Z,93742.52
2019-01-10T08:31:28.749Z,93746.26
2019-01-10T08:33:57.117Z,93744.16
2019-01-10T08:36:32.337Z,93750.86
2019-01-10T08:39:14.763Z,93745.03
2019-01-10T08:41:43.443Z,93748.42
2019-01-10T08:44:11.328Z,93752.64
2019-01-10T08:46:40.328Z,93751.00
2019-01-10T08:49:08.572Z,93751.87
2019-01-10T08:51:38.106Z,93761.09
2019-01-10T08:54:06.270Z,93765.33
2019-01-10T08:56:34.440Z,93762.03
2019-01-10T08:59:01.910Z,93766.74
2019-01-10T09:01:30.152Z,93767.58
2019-01-10T09:03:58.225Z,93772.97
2019-01-10T09:06:26.605Z,93776.35
2019-01-10T09:08:54.672Z,93776.80
2019-01-10T09:11:22.479Z,93773.39
2019-01-10T09:13:50.546Z,93781.87
2019-01-10T09:16:18.269Z,93779.06
2019-01-10T09:18:46.441Z,93783.77
2019-01-10T09:21:14.605Z,93787.56
2019-01-10T09:23:42.780Z,93789.66
2019-01-10T09:26:10.562Z,93785.08
2019-01-10T09:28:39.190Z,93795.90
2019-01-10T09:31:07.307Z,93787.87
2019-01-10T09:33:35.822Z,93794.09
2019-01-10T09:36:04.124Z,93795.22
2019-01-10T09:38:32.701Z,93796.09
2019-01-10T09:41:00.969Z,93798.19
2019-01-10T09:43:29.062Z,93800.70
2019-01-10T09:45:57.657Z,93802.48
2019-01-10T09:48:26.142Z,93805.09
2019-01-10T09:50:53.929Z,93802.16
2019-01-10T09:53:22.110Z,93805.61
2019-01-10T09:55:50.388Z,93803.56
2019-01-10T09:58:18.616Z,93803.15
2019-01-10T10:00:47.086Z,93807.84
2019-01-10T10:03:15.341Z,93805.87
2019-01-10T10:05:43.471Z,93805.53
2019-01-10T10:08:11.639Z,93807.73
2019-01-10T10:10:40.272Z,93809.50
2019-01-10T10:13:08.863Z,93819.20
2019-01-10T10:15:36.926Z,93814.54
2019-01-10T10:18:05.617Z,93810.39
2019-01-10T10:20:34.230Z,93816.94
2019-01-10T10:23:02.761Z,93815.31
2019-01-10T10:25:31.300Z,93822.95
2019-01-10T10:27:59.471Z,93824.87
2019-01-10T10:30:27.662Z,93828.67
2019-01-10T10:32:56.346Z,93821.25
2019-01-10T10:38:51.062Z,93820.34
2019-01-10T10:41:18.782Z,93826.55
2019-01-10T10:43:47.280Z,93823.61
2019-01-10T10:46:15.001Z,93824.00
2019-01-10T10:48:42.826Z,93822.84
2019-01-10T10:51:10.536Z,93832.52
2019-01-10T10:53:39.120Z,93826.52
2019-01-10T10:56:07.676Z,93831.22
2019-01-10T10:58:36.141Z,93833.84
2019-01-10T11:01:44.653Z,93834.31
2019-01-10T11:04:12.063Z,93835.66
2019-01-10T11:06:40.265Z,93826.40
2019-01-10T11:09:09.655Z,93830.17
2019-01-10T11:11:37.794Z,93826.03
2019-01-10T11:14:06.034Z,93833.53
2019-01-10T11:16:33.833Z,93828.97
2019-01-10T11:19:02.333Z,93830.17
2019-01-10T11:21:30.810Z,93826.87
2019-01-10T11:23:58.891Z,93828.58
2019-01-10T11:26:26.737Z,93831.83
2019-01-10T11:28:54.553Z,93831.02
2019-01-10T11:31:22.725Z,93830.51
2019-01-10T11:33:50.847Z,93824.72
2019-01-10T11:36:18.637Z,93821.81
2019-01-10T11:38:47.083Z,93822.95
2019-01-10T11:41:14.900Z,93826.40
2019-01-10T11:43:42.961Z,93816.02
2019-01-10T11:46:19.272Z,93821.92
2019-01-10T11:48:40.028Z,93827.27
2019-01-10T11:51:08.151Z,93821.78
2019-01-10T11:53:36.477Z,93828.86
2019-01-10T11:56:44.596Z,93827.51
2019-01-10T11:59:12.932Z,93821.09
2019-01-10T12:01:41.015Z,93827.87
2019-01-10T12:04:09.002Z,93825.73
2019-01-10T12:06:36.334Z,93822.50
2019-01-10T12:09:45.133Z,93817.50
2019-01-10T12:12:12.589Z,93826.16
2019-01-10T12:14:40.782Z,93818.70
2019-01-10T12:17:08.557Z,93816.16
2019-01-10T12:19:36.627Z,93818.70
2019-01-10T12:22:05.135Z,93824.22
2019-01-10T12:24:33.187Z,93821.67
2019-01-10T12:27:01.671Z,93816.60
2019-01-10T12:29:36.103Z,93820.34
2019-01-10T12:32:00.160Z,93816.09
2019-01-10T12:34:28.351Z,93817.77
2019-01-10T12:37:00.562Z,93823.22
2019-01-10T12:39:25.358Z,93822.35
2019-01-10T12:41:53.491Z,93818.45
2019-01-10T12:44:20.598Z,93822.28
2019-01-10T12:46:47.643Z,93820.16
2019-01-10T12:49:15.884Z,93822.61
2019-01-10T12:51:44.091Z,93820.13
2019-01-10T12:54:11.781Z,93824.28
2019-01-10T12:56:40.156Z,93820.97
2019-01-10T12:59:07.936Z,93826.90
2019-01-10T13:01:35.613Z,93821.87
2019-01-10T13:04:04.045Z,93822.58
2019-01-10T13:06:32.657Z,93825.13
2019-01-10T13:09:00.605Z,93825.19
2019-01-10T13:11:29.116Z,93824.32
2019-01-10T13:13:59.644Z,93826.84
2019-01-10T13:16:27.216Z,93823.16
2019-01-10T13:18:55.433Z,93822.35
2019-01-10T13:21:22.902Z,93827.03
2019-01-10T13:23:51.131Z,93825.28
2019-01-10T13:26:18.926Z,93824.00
2019-01-10T13:28:46.992Z,93823.16
2019-01-10T13:31:14.868Z,93826.90
2019-01-10T13:33:43.339Z,93827.67
2019-01-10T13:36:11.923Z,93828.06
2019-01-10T13:38:39.713Z,93828.55
2019-01-10T13:41:48.210Z,93829.35
2019-01-10T13:44:16.030Z,93832.15
2019-01-10T13:46:43.959Z,93833.83
2019-01-10T13:49:12.136Z,93835.47
2019-01-10T13:51:40.693Z,93833.86
2019-01-10T13:54:08.426Z,93837.11
2019-01-10T13:56:36.486Z,93833.83
2019-01-10T13:59:04.441Z,93837.53
2019-01-10T14:01:32.559Z,93836.30
2019-01-10T14:04:00.798Z,93841.86
2019-01-10T14:06:28.541Z,93843.12
2019-01-10T14:08:57.063Z,93846.09
2019-01-10T14:11:25.590Z,93849.06
2019-01-10T14:13:53.976Z,93841.86
2019-01-10T14:16:21.412Z,93846.75
2019-01-10T14:18:49.618Z,93843.02
2019-01-10T14:21:18.161Z,93847.16
2019-01-10T14:23:46.565Z,93846.25
2019-01-10T14:26:14.906Z,93850.94
2019-01-10T14:28:43.367Z,93849.65
2019-01-10T14:31:11.697Z,93853.27
2019-01-10T14:33:40.183Z,93853.11
2019-01-10T14:38:57.887Z,93859.84
2019-01-10T14:41:25.881Z,93859.47
2019-01-10T14:43:54.381Z,93861.11
2019-01-10T14:46:22.727Z,93855.66
2019-01-10T14:48:50.152Z,93871.08
2019-01-10T14:51:18.244Z,93870.48
2019-01-10T14:53:46.561Z,93868.77
2019-01-10T14:56:16.304Z,93875.09
2019-01-10T14:58:44.522Z,93873.01
2019-01-10T15:01:12.358Z,93874.72
2019-01-10T15:03:40.789Z,93882.22
2019-01-10T15:06:08.939Z,93885.19
2019-01-10T15:08:37.563Z,93889.84
2019-01-10T15:11:05.037Z,93883.43
2019-01-10T15:13:33.264Z,93889.30
2019-01-10T15:16:01.331Z,93896.00
2019-01-10T15:18:29.431Z,93894.32
2019-01-10T15:20:57.169Z,93894.32
2019-01-10T15:23:25.381Z,93895.95
2019-01-10T15:25:53.951Z,93900.59
2019-01-10T15:28:22.612Z,93896.83
2019-01-10T15:30:50.406Z,93901.44
2019-01-10T15:33:18.498Z,93903.03
2019-01-10T15:35:46.747Z,93903.41
2019-01-10T15:38:14.517Z,93908.89
2019-01-10T15:40:43.075Z,93904.28
2019-01-10T15:43:11.632Z,93908.43
2019-01-10T15:45:39.430Z,93918.14
2019-01-10T15:48:07.565Z,93912.66
2019-01-10T15:50:35.771Z,93913.45
2019-01-10T15:53:03.816Z,93916.34
2019-01-10T15:58:08.031Z,93912.70
2019-01-10T16:00:36.442Z,93917.27
2019-01-10T16:03:04.386Z,93917.22
2019-01-10T16:05:32.437Z,93913.34
2019-01-10T16:08:00.977Z,93920.89
2019-01-10T16:10:29.182Z,93922.51
2019-01-10T16:12:57.592Z,93925.81
2019-01-10T16:15:26.252Z,93912.88
2019-01-10T16:18:34.784Z,93919.91
2019-01-10T16:21:03.247Z,93917.34
2019-01-10T16:23:31.409Z,93923.58
2019-01-10T16:25:59.912Z,93920.69
2019-01-10T16:28:28.453Z,93921.11
2019-01-10T16:30:57.082Z,93919.49
2019-01-10T16:33:25.726Z,93928.23
2019-01-10T16:35:54.151Z,93927.39
2019-01-10T16:38:22.735Z,93926.61
2019-01-10T16:40:50.865Z,93940.84
2019-01-10T16:43:19.265Z,93927.86
2019-01-10T16:45:46.978Z,93945.96
2019-01-10T16:48:14.790Z,93951.83
2019-01-10T16:50:43.392Z,93945.12
2019-01-10T16:53:11.587Z,93943.34
2019-01-10T16:55:39.339Z,93945.44
2019-01-10T16:58:08.001Z,93946.66
2019-01-10T17:00:36.095Z,93953.77
2019-01-10T17:03:25.438Z,93955.44
2019-01-10T17:05:53.627Z,93962.50
2019-01-10T17:08:21.785Z,93964.60
2019-01-10T17:10:49.899Z,93956.59
2019-01-10T17:13:18.329Z,93970.05
2019-01-10T17:15:46.782Z,93967.07
2019-01-10T17:18:15.318Z,93969.63
2019-01-10T17:20:44.011Z,93974.55
2019-01-10T17:23:12.479Z,93972.41
2019-01-10T17:25:40.691Z,93979.89
2019-01-10T17:28:08.843Z,93980.81
2019-01-10T17:30:37.000Z,93988.66
2019-01-10T17:33:05.835Z,93993.33
2019-01-10T17:35:34.672Z,93987.84
2019-01-10T17:38:03.004Z,93992.50
2019-01-10T17:41:11.492Z,93992.02
2019-01-10T17:43:39.978Z,93991.23
2019-01-10T17:46:08.179Z,93995.77
2019-01-10T17:48:55.322Z,93998.28
2019-01-10T17:51:23.820Z,93995.72
2019-01-10T17:53:52.400Z,94000.74
2019-01-10T17:56:20.634Z,94000.34
2019-01-10T17:58:48.855Z,94005.30
2019-01-10T18:01:17.579Z,94001.53
2019-01-10T18:03:46.007Z,94003.20
2019-01-10T18:06:13.492Z,94014.51
2019-01-10T18:08:41.742Z,94014.50
2019-01-10T18:11:09.288Z,94019.38
2019-01-10T18:13:37.858Z,94016.52
2019-01-10T18:16:06.533Z,94016.83
2019-01-10T18:18:34.663Z,94022.27
2019-01-10T18:21:02.759Z,94020.06
2019-01-10T18:23:31.251Z,94027.58
2019-01-10T18:25:59.457Z,94029.22
2019-01-10T18:28:28.292Z,94032.20
2019-01-10T18:30:56.204Z,94032.92
2019-01-10T18:33:24.438Z,94037.57
2019-01-10T18:35:51.918Z,94035.42
2019-01-10T18:38:20.109Z,94040.87
2019-01-10T18:40:48.704Z,94041.63
2019-01-10T18:43:17.108Z,94036.62
2019-01-10T18:45:44.968Z,94047.04
2019-01-10T18:48:13.604Z,94039.91
2019-01-10T18:50:42.250Z,94038.71
2019-01-10T18:53:10.088Z,94043.69
2019-01-10T18:55:38.282Z,94044.88
2019-01-10T18:58:06.875Z,94043.73
2019-01-10T19:00:35.250Z,94047.09
2019-01-10T19:03:03.864Z,94047.56
2019-01-10T19:05:32.726Z,94042.48
2019-01-10T19:08:00.719Z,94044.16
2019-01-10T19:10:28.984Z,94044.59
2019-01-10T19:12:56.394Z,94048.70
2019-01-10T19:15:24.810Z,94048.70
2019-01-10T19:17:52.263Z,94055.81
2019-01-10T19:20:22.670Z,94050.67
2019-01-10T19:22:51.151Z,94057.84
2019-01-10T19:25:19.421Z,94063.59
2019-01-10T19:27:47.580Z,94057.67
2019-01-10T19:30:26.814Z,94056.05
2019-01-10T19:33:34.617Z,94060.72
2019-01-10T19:36:02.908Z,94059.41
2019-01-10T19:38:31.198Z,94053.48
2019-01-10T19:41:19.342Z,94055.22
2019-01-10T19:44:07.887Z,94061.48
2019-01-10T19:50:11.941Z,94069.32
2019-01-10T19:55:36.143Z,94070.97
2019-01-10T19:58:04.817Z,94069.72
2019-01-10T20:00:53.569Z,94069.30
2019-01-10T20:03:40.646Z,94073.07
2019-01-10T20:06:08.670Z,94074.69
2019-01-10T20:08:37.534Z,94078.83
2019-01-10T20:11:25.187Z,94084.78
2019-01-10T20:13:53.891Z,94080.55
2019-01-10T20:16:22.816Z,94081.86
2019-01-10T20:19:31.579Z,94084.43
2019-01-10T20:22:00.392Z,94081.92
2019-01-10T20:24:28.065Z,94083.61
2019-01-10T20:27:16.132Z,94086.11
2019-01-10T20:29:45.483Z,94087.80
2019-01-10T20:32:14.520Z,94088.69
2019-01-10T20:34:42.765Z,94082.05
2019-01-10T20:37:11.353Z,94080.66
2019-01-10T20:39:40.240Z,94086.48
2019-01-10T20:42:09.382Z,94090.30
2019-01-10T20:47:34.973Z,94086.11
2019-01-10T20:52:58.915Z,94086.23
2019-01-10T20:55:27.460Z,94085.41
2019-01-10T20:57:56.140Z,94087.06
2019-01-10T21:03:20.010Z,94096.57
2019-01-10T21:05:50.566Z,94099.45
2019-01-10T21:08:38.055Z,94088.55
2019-01-10T21:11:07.067Z,94096.86
2019-01-10T21:13:34.955Z,94097.77
2019-01-10T21:16:03.294Z,94092.80
2019-01-10T21:18:31.944Z,94091.15
2019-01-10T21:21:00.670Z,94096.65
2019-01-10T21:24:09.535Z,94090.77
2019-01-10T21:26:57.844Z,94094.55
2019-01-10T21:32:40.725Z,94098.23
2019-01-10T21:35:06.013Z,94096.52
2019-01-10T21:37:34.788Z,94099.03
2019-01-10T21:40:04.032Z,94105.70
2019-01-10T21:42:31.453Z,94104.81
2019-01-10T21:45:00.554Z,94103.98
2019-01-10T21:47:41.100Z,94106.13
2019-01-10T21:50:14.272Z,94105.70
2019-01-10T21:52:43.626Z,94106.98
2019-01-10T21:55:51.954Z,94098.59
2019-01-10T21:58:20.401Z,94107.82
2019-01-10T22:01:28.831Z,94106.96
2019-01-10T22:03:57.267Z,94109.01
2019-01-10T22:06:26.219Z,94111.09
2019-01-10T22:08:54.533Z,94108.63
2019-01-10T22:12:02.927Z,94107.33
2019-01-10T22:17:08.258Z,94103.56
2019-01-10T22:19:36.806Z,94104.41
2019-01-10T22:22:05.280Z,94101.87
2019-01-10T22:24:34.060Z,94102.23
2019-01-10T22:27:02.270Z,94106.48
2019-01-10T22:29:49.643Z,94101.46
2019-01-10T22:32:37.683Z,94103.15
2019-01-10T22:35:07.866Z,94105.16
2019-01-10T22:37:36.285Z,94104.41
2019-01-10T22:40:44.920Z,94101.03
2019-01-10T22:43:32.484Z,94105.15
2019-01-10T22:46:01.454Z,94104.69
2019-01-10T22:48:48.579Z,94101.77
2019-01-10T22:51:36.184Z,94098.80
2019-01-10T22:54:05.530Z,94100.00
2019-01-10T22:56:33.566Z,94097.02
2019-01-10T22:59:02.541Z,94102.62
2019-01-10T23:02:22.880Z,94095.20
2019-01-10T23:04:51.895Z,94097.16
2019-01-10T23:07:39.829Z,94100.28
2019-01-10T23:13:24.179Z,94103.56
2019-01-10T23:15:53.448Z,94104.41
2019-01-10T23:18:21.490Z,94102.29
2019-01-10T23:21:09.323Z,94100.00
2019-01-10T23:24:16.335Z,94096.68
2019-01-10T23:27:04.310Z,94097.08
2019-01-10T23:30:13.157Z,94100.95
2019-01-10T23:32:41.202Z,94099.36
2019-01-10T23:35:09.401Z,94095.84
2019-01-10T23:37:37.564Z,94099.59
2019-01-10T23:40:06.044Z,94094.22
2019-01-10T23:42:34.582Z,94094.14
2019-01-10T23:48:11.209Z,94089.23
2019-01-10T23:50:39.394Z,94089.15
2019-01-10T23:53:07.625Z,94089.77
2019-01-10T23:55:36.209Z,94085.87
2019-01-10T23:58:04.349Z,94089.14
